Quesnel, Quesnel Airport (CYQZ)

NameQuesnel Airport
CityQuesnel
CountryCanada
ICAOCYQZ
IATAYQZ
Altitude545 m
CoordinatesGoogle Map
Live Air TrafficLiveATC.net
METARCYQZ 121500Z AUTO VRB02KT 9SM CLR M06/M07 A2973 RMK SLP098
2018-12-12 15:00:00 Wind: North (0°) 1.03 m/s - Visibility: 14484.06 m - Temperature: -6 °C - Dew point: -7 °C - Humidity: 92.7% - Pressure: 1006.77 hPa
Statistics

The table below shows the detailed information of all flights to/from Quesnel, Quesnel Airport (CYQZ).